createdAt,value
2023-01-17T00:02:13.849Z,6.99
2023-01-17T00:05:37.921Z,6.99
2023-01-17T00:09:01.571Z,6.96
2023-01-17T00:12:08.749Z,6.91
2023-01-17T00:15:16.869Z,6.86
2023-01-17T00:18:23.107Z,6.81
2023-01-17T00:21:46.738Z,6.75
2023-01-17T00:25:10.300Z,6.68
2023-01-17T00:28:15.292Z,6.56
2023-01-17T00:31:20.298Z,6.48
2023-01-17T00:34:25.266Z,6.43
2023-01-17T00:37:30.227Z,6.40
2023-01-17T00:40:36.026Z,6.42
2023-01-17T00:43:59.795Z,6.44
2023-01-17T00:47:23.329Z,6.44
2023-01-17T00:50:47.352Z,6.42
2023-01-17T00:54:10.831Z,6.38
2023-01-17T00:57:34.595Z,6.34
2023-01-17T01:00:58.207Z,6.29
2023-01-17T01:04:22.339Z,6.21
2023-01-17T01:07:46.117Z,6.11
2023-01-17T01:11:09.992Z,6.06
2023-01-17T01:14:33.466Z,6.06
2023-01-17T01:17:57.233Z,6.10
2023-01-17T01:21:24.804Z,6.12
2023-01-17T01:24:49.095Z,6.14
2023-01-17T01:28:21.051Z,6.16
2023-01-17T01:31:44.861Z,6.14
2023-01-17T01:34:51.214Z,6.06
2023-01-17T01:37:55.550Z,5.95
2023-01-17T01:41:01.487Z,5.79
2023-01-17T01:44:21.387Z,5.71
2023-01-17T01:47:32.144Z,5.67
2023-01-17T01:50:39.087Z,5.68
2023-01-17T01:53:53.996Z,5.70
2023-01-17T01:57:02.120Z,5.70
2023-01-17T02:00:15.827Z,5.69
2023-01-17T02:03:27.340Z,5.69
2023-01-17T02:06:36.864Z,5.66
2023-01-17T02:09:42.952Z,5.57
2023-01-17T02:12:50.654Z,5.43
2023-01-17T02:16:04.421Z,5.36
2023-01-17T02:19:37.469Z,5.32
2023-01-17T02:23:28.388Z,5.29
2023-01-17T02:27:01.219Z,5.25
2023-01-17T02:30:30.951Z,5.26
2023-01-17T02:33:46.887Z,5.28
2023-01-17T02:36:57.885Z,5.27
2023-01-17T02:40:10.175Z,5.28
2023-01-17T02:43:18.135Z,5.27
2023-01-17T02:46:24.384Z,5.26
2023-01-17T02:49:32.939Z,5.29
2023-01-17T02:52:51.378Z,5.28
2023-01-17T02:56:07.309Z,5.28
2023-01-17T02:59:22.339Z,5.30
2023-01-17T03:02:34.571Z,5.29
2023-01-17T03:05:45.695Z,5.36
2023-01-17T03:08:54.606Z,5.40
2023-01-17T03:12:01.170Z,5.44
2023-01-17T03:15:13.106Z,5.48
2023-01-17T03:18:19.734Z,5.53
2023-01-17T03:21:26.411Z,5.59
2023-01-17T03:24:32.688Z,5.63
2023-01-17T03:27:39.011Z,5.75
2023-01-17T03:30:43.436Z,5.80
2023-01-17T03:33:49.949Z,5.80
2023-01-17T03:36:56.420Z,5.85
2023-01-17T03:40:02.654Z,5.89
2023-01-17T03:43:09.096Z,5.91
2023-01-17T03:46:23.935Z,5.90
2023-01-17T03:49:30.232Z,5.86
2023-01-17T03:52:34.683Z,5.83
2023-01-17T03:55:40.773Z,5.76
2023-01-17T03:58:47.756Z,5.75
2023-01-17T04:01:54.107Z,5.74
2023-01-17T04:04:58.635Z,5.74
2023-01-17T04:08:06.781Z,5.71
2023-01-17T04:11:12.987Z,5.73
2023-01-17T04:14:19.199Z,5.73
2023-01-17T04:17:26.096Z,5.73
2023-01-17T04:20:35.761Z,5.72
2023-01-17T04:23:42.026Z,5.73
2023-01-17T04:26:48.243Z,5.72
2023-01-17T04:29:54.487Z,5.70
2023-01-17T04:32:59.564Z,5.69
2023-01-17T04:36:06.372Z,5.67
2023-01-17T04:39:12.638Z,5.70
2023-01-17T04:42:18.840Z,5.72
2023-01-17T04:45:25.157Z,5.71
2023-01-17T04:48:31.564Z,5.74
2023-01-17T04:51:37.979Z,5.74
2023-01-17T04:54:44.236Z,5.77
2023-01-17T04:57:50.462Z,5.80
2023-01-17T05:00:57.658Z,5.83
2023-01-17T05:04:03.950Z,5.85
2023-01-17T05:07:08.569Z,5.86
2023-01-17T05:10:15.317Z,5.85
2023-01-17T05:13:21.840Z,5.89
2023-01-17T05:16:28.488Z,5.89
2023-01-17T05:19:34.738Z,5.86
2023-01-17T05:22:40.956Z,5.85
2023-01-17T05:25:47.219Z,5.86
2023-01-17T05:28:51.691Z,5.88
2023-01-17T05:31:57.896Z,5.89
2023-01-17T05:35:04.124Z,5.92
2023-01-17T05:38:10.501Z,5.92
2023-01-17T05:41:15.047Z,5.92
2023-01-17T05:44:21.268Z,5.87
2023-01-17T05:47:27.501Z,5.87
2023-01-17T05:50:35.374Z,5.85
2023-01-17T05:53:41.640Z,5.85
2023-01-17T05:56:47.935Z,5.82
2023-01-17T05:59:52.408Z,5.79
2023-01-17T06:03:00.023Z,5.72
2023-01-17T06:06:06.472Z,5.70
2023-01-17T06:09:11.916Z,5.68
2023-01-17T06:12:18.150Z,5.64
2023-01-17T06:15:24.351Z,5.65
2023-01-17T06:18:30.951Z,5.65
2023-01-17T06:21:37.345Z,5.64
2023-01-17T06:24:41.817Z,5.65
2023-01-17T06:27:48.052Z,5.63
2023-01-17T06:30:54.370Z,5.66
2023-01-17T06:33:58.897Z,5.70
2023-01-17T06:37:05.155Z,5.73
2023-01-17T06:40:14.034Z,5.80
2023-01-17T06:43:20.255Z,5.84
2023-01-17T06:46:26.472Z,5.88
2023-01-17T06:49:32.698Z,5.91
2023-01-17T06:52:39.066Z,5.95
2023-01-17T06:55:43.715Z,5.97
2023-01-17T06:58:53.450Z,5.96
2023-01-17T07:01:59.811Z,6.00
2023-01-17T07:05:06.597Z,6.03
2023-01-17T07:08:12.874Z,6.07
2023-01-17T07:11:17.415Z,6.11
2023-01-17T07:14:23.666Z,6.07
2023-01-17T07:17:29.932Z,6.12
2023-01-17T07:20:34.651Z,6.15
2023-01-17T07:23:40.947Z,6.14
2023-01-17T07:26:45.556Z,6.22
2023-01-17T07:29:54.076Z,6.25
2023-01-17T07:33:01.419Z,6.31
2023-01-17T07:36:09.843Z,6.34
2023-01-17T07:39:16.271Z,6.38
2023-01-17T07:42:24.044Z,6.37
2023-01-17T07:45:30.988Z,6.38
2023-01-17T07:48:37.363Z,6.40
2023-01-17T07:51:41.910Z,6.43
2023-01-17T07:54:48.140Z,6.41
2023-01-17T07:57:54.571Z,6.45
2023-01-17T08:01:06.380Z,6.48
2023-01-17T08:04:14.198Z,6.49
2023-01-17T08:07:20.518Z,6.53
2023-01-17T08:10:25.319Z,6.56
2023-01-17T08:13:31.633Z,6.58
2023-01-17T08:16:37.783Z,6.66
2023-01-17T08:19:44.859Z,6.69
2023-01-17T08:22:53.123Z,6.78
2023-01-17T08:26:03.303Z,6.83
2023-01-17T08:29:10.322Z,6.92
2023-01-17T08:32:16.937Z,7.03
2023-01-17T08:35:23.206Z,7.13
2023-01-17T08:38:29.573Z,7.23
2023-01-17T08:41:34.041Z,7.34
2023-01-17T08:44:40.406Z,7.38
2023-01-17T08:47:44.936Z,7.46
2023-01-17T08:50:51.292Z,7.48
2023-01-17T08:53:56.404Z,7.51
2023-01-17T08:57:03.431Z,7.50
2023-01-17T09:00:12.437Z,7.56
2023-01-17T09:03:18.966Z,7.62
2023-01-17T09:06:25.227Z,7.69
2023-01-17T09:09:31.379Z,7.77
2023-01-17T09:12:39.031Z,7.83
2023-01-17T09:15:45.279Z,7.91
2023-01-17T09:18:54.781Z,7.96
2023-01-17T09:22:01.035Z,7.99
2023-01-17T09:25:08.691Z,8.04
2023-01-17T09:28:14.808Z,8.09
2023-01-17T09:31:22.743Z,8.14
2023-01-17T09:34:30.667Z,8.16
2023-01-17T09:37:37.007Z,8.19
2023-01-17T09:40:45.029Z,8.24
2023-01-17T09:43:55.166Z,8.31
2023-01-17T09:47:06.117Z,8.46
2023-01-17T09:50:26.768Z,8.60
2023-01-17T09:53:36.082Z,8.72
2023-01-17T09:56:49.591Z,8.83
2023-01-17T10:00:04.327Z,8.95
2023-01-17T10:03:38.590Z,9.07
2023-01-17T10:07:02.740Z,9.16
2023-01-17T10:10:29.596Z,9.25
2023-01-17T10:13:44.593Z,9.34
2023-01-17T10:16:56.702Z,9.40
2023-01-17T10:20:18.049Z,9.47
2023-01-17T10:24:04.225Z,9.56
2023-01-17T10:27:17.350Z,9.65
2023-01-17T10:30:28.476Z,9.72
2023-01-17T10:33:41.706Z,9.77
2023-01-17T10:36:51.459Z,9.82
2023-01-17T10:40:03.083Z,9.90
2023-01-17T10:43:19.303Z,9.98
2023-01-17T10:46:31.565Z,10.04
2023-01-17T10:49:41.316Z,10.11
2023-01-17T10:52:53.463Z,10.17
2023-01-17T10:55:59.851Z,10.21
2023-01-17T10:59:13.284Z,10.22
2023-01-17T11:02:25.252Z,10.22
2023-01-17T11:05:34.051Z,10.27
2023-01-17T11:08:53.829Z,10.32
2023-01-17T11:12:00.213Z,10.36
2023-01-17T11:15:07.827Z,10.40
2023-01-17T11:18:19.933Z,10.19
2023-01-17T11:21:27.755Z,9.55
2023-01-17T11:24:37.601Z,9.03
2023-01-17T11:27:45.095Z,8.81
2023-01-17T11:30:56.811Z,9.15
2023-01-17T11:34:19.933Z,9.52
2023-01-17T11:37:29.285Z,9.78
2023-01-17T11:40:41.128Z,9.94
2023-01-17T11:43:55.169Z,9.74
2023-01-17T11:47:19.423Z,9.24
2023-01-17T11:50:29.669Z,9.02
2023-01-17T11:53:39.261Z,9.40
2023-01-17T11:56:46.423Z,9.75
2023-01-17T11:59:57.893Z,9.99
2023-01-17T12:03:23.906Z,9.77
2023-01-17T12:06:56.519Z,9.30
2023-01-17T12:10:13.408Z,8.98
2023-01-17T12:13:49.491Z,8.93
2023-01-17T12:17:14.130Z,9.49
2023-01-17T12:20:28.639Z,9.96
2023-01-17T12:23:52.072Z,10.19
2023-01-17T12:27:08.018Z,9.83
2023-01-17T12:30:30.946Z,9.46
2023-01-17T12:33:47.778Z,9.22
2023-01-17T12:36:57.932Z,9.22
2023-01-17T12:40:08.859Z,9.75
2023-01-17T12:43:21.345Z,10.14
2023-01-17T12:46:33.008Z,9.90
2023-01-17T12:49:47.562Z,9.60
2023-01-17T12:53:00.489Z,9.37
2023-01-17T12:56:13.528Z,9.28
2023-01-17T12:59:27.056Z,9.23
2023-01-17T13:02:38.966Z,9.26
2023-01-17T13:05:48.647Z,9.83
2023-01-17T13:08:57.186Z,10.24
2023-01-17T13:12:08.222Z,10.01
2023-01-17T13:15:27.242Z,9.69
2023-01-17T13:18:33.529Z,9.48
2023-01-17T13:21:38.117Z,9.36
2023-01-17T13:24:52.187Z,9.26
2023-01-17T13:28:15.285Z,9.17
2023-01-17T13:31:30.137Z,9.13
2023-01-17T13:35:00.275Z,9.24
2023-01-17T13:38:29.245Z,9.80
2023-01-17T13:41:51.551Z,10.11
2023-01-17T13:44:59.157Z,9.73
2023-01-17T13:48:34.352Z,9.38
2023-01-17T13:52:13.276Z,9.09
2023-01-17T13:55:46.167Z,8.86
2023-01-17T13:59:06.992Z,8.69
2023-01-17T14:02:40.229Z,8.51
2023-01-17T14:05:59.011Z,8.54
2023-01-17T14:09:12.081Z,9.09
2023-01-17T14:12:32.789Z,9.51
2023-01-17T14:15:51.413Z,9.54
2023-01-17T14:18:58.626Z,9.09
2023-01-17T14:22:24.934Z,8.75
2023-01-17T14:25:39.677Z,8.46
2023-01-17T14:28:45.953Z,8.23
2023-01-17T14:31:50.569Z,8.05
2023-01-17T14:34:57.480Z,7.87
2023-01-17T14:38:05.806Z,7.81
2023-01-17T14:41:19.969Z,8.26
2023-01-17T14:44:26.233Z,8.70
2023-01-17T14:47:36.780Z,8.97
2023-01-17T14:50:45.008Z,9.06
2023-01-17T14:53:57.712Z,8.59
2023-01-17T14:57:30.844Z,8.09
2023-01-17T15:00:42.631Z,7.70
2023-01-17T15:03:51.254Z,7.41
2023-01-17T15:06:58.922Z,7.15
2023-01-17T15:10:06.122Z,7.05
2023-01-17T15:13:14.958Z,7.46
2023-01-17T15:16:28.433Z,7.84
2023-01-17T15:19:45.005Z,8.09
2023-01-17T15:22:51.347Z,8.25
2023-01-17T15:25:56.100Z,8.35
2023-01-17T15:29:06.854Z,8.39
2023-01-17T15:32:20.923Z,8.36
2023-01-17T15:35:28.344Z,7.76
2023-01-17T15:38:39.003Z,7.22
2023-01-17T15:41:47.388Z,6.81
2023-01-17T15:44:57.994Z,6.48
2023-01-17T15:48:34.603Z,6.30
2023-01-17T15:51:46.693Z,6.69
2023-01-17T15:54:54.716Z,7.01
2023-01-17T15:58:01.354Z,7.19
2023-01-17T16:01:18.133Z,7.29
2023-01-17T16:04:34.309Z,7.35
2023-01-17T16:07:40.527Z,7.38
2023-01-17T16:10:47.469Z,7.40
2023-01-17T16:13:54.081Z,7.42
2023-01-17T16:17:01.639Z,7.43
2023-01-17T16:20:16.168Z,7.30
2023-01-17T16:23:22.479Z,6.61
2023-01-17T16:26:29.200Z,5.96
2023-01-17T16:29:35.660Z,5.49
2023-01-17T16:32:41.840Z,5.30
2023-01-17T16:35:48.248Z,5.66
2023-01-17T16:38:54.768Z,6.04
2023-01-17T16:42:03.498Z,6.29
2023-01-17T16:45:11.130Z,6.46
2023-01-17T16:48:19.323Z,6.57
2023-01-17T16:51:25.848Z,6.65
2023-01-17T16:54:32.085Z,6.72
2023-01-17T16:57:38.336Z,6.79
2023-01-17T17:00:42.878Z,6.86
2023-01-17T17:03:49.561Z,6.90
2023-01-17T17:06:55.640Z,6.98
2023-01-17T17:10:01.951Z,7.03
2023-01-17T17:13:06.467Z,7.07
2023-01-17T17:16:18.496Z,7.08
2023-01-17T17:19:25.261Z,7.13
2023-01-17T17:22:31.689Z,7.16
2023-01-17T17:25:36.225Z,7.20
2023-01-17T17:28:42.491Z,7.19
2023-01-17T17:31:48.727Z,7.23
2023-01-17T17:34:54.941Z,7.23
2023-01-17T17:38:01.284Z,7.21
2023-01-17T17:41:10.596Z,7.18
2023-01-17T17:44:17.579Z,7.12
2023-01-17T17:47:24.464Z,7.10
2023-01-17T17:50:31.057Z,7.09
2023-01-17T17:53:37.056Z,7.08
2023-01-17T17:56:46.535Z,7.02
2023-01-17T17:59:52.968Z,6.99
2023-01-17T18:02:58.925Z,6.99
2023-01-17T18:06:07.581Z,7.00
2023-01-17T18:09:14.676Z,7.00
2023-01-17T18:12:20.957Z,6.98
2023-01-17T18:15:27.239Z,6.97
2023-01-17T18:18:32.719Z,6.97
2023-01-17T18:21:40.211Z,6.94
2023-01-17T18:24:46.303Z,6.98
2023-01-17T18:27:52.739Z,7.01
2023-01-17T18:30:59.107Z,7.02
2023-01-17T18:34:08.574Z,7.01
2023-01-17T18:37:14.892Z,6.92
2023-01-17T18:40:19.879Z,6.85
2023-01-17T18:43:28.893Z,6.79
2023-01-17T18:46:35.565Z,6.78
2023-01-17T18:49:41.757Z,6.76
2023-01-17T18:52:47.740Z,6.78
2023-01-17T18:55:57.594Z,6.85
2023-01-17T18:59:05.895Z,6.92
2023-01-17T19:02:13.035Z,6.91
2023-01-17T19:05:21.689Z,6.88
2023-01-17T19:08:27.650Z,6.81
2023-01-17T19:11:34.256Z,6.78
2023-01-17T19:14:40.297Z,6.77
2023-01-17T19:17:46.246Z,6.76
2023-01-17T19:20:52.198Z,6.75
2023-01-17T19:23:59.420Z,6.77
2023-01-17T19:27:07.213Z,6.82
2023-01-17T19:30:15.157Z,6.88
2023-01-17T19:33:21.562Z,6.94
2023-01-17T19:36:27.192Z,6.97
2023-01-17T19:39:33.660Z,6.97
2023-01-17T19:42:40.733Z,7.01
2023-01-17T19:45:56.191Z,7.05
2023-01-17T19:49:02.726Z,7.08
2023-01-17T19:52:09.048Z,7.09
2023-01-17T19:55:13.631Z,7.07
2023-01-17T19:58:20.028Z,7.04
2023-01-17T20:01:28.239Z,7.07
2023-01-17T20:04:34.634Z,7.09
2023-01-17T20:07:39.176Z,7.09
2023-01-17T20:10:46.741Z,7.01
2023-01-17T20:13:57.630Z,7.01
2023-01-17T20:17:04.725Z,7.04
2023-01-17T20:20:13.632Z,7.06
2023-01-17T20:23:19.809Z,7.10
2023-01-17T20:26:34.886Z,7.11
2023-01-17T20:29:41.455Z,7.14
2023-01-17T20:32:47.920Z,7.16
2023-01-17T20:36:09.090Z,7.16
2023-01-17T20:39:18.206Z,7.16
2023-01-17T20:42:24.378Z,7.19
2023-01-17T20:45:30.690Z,7.25
2023-01-17T20:48:35.511Z,7.33
2023-01-17T20:51:44.442Z,7.37
2023-01-17T20:54:51.863Z,7.46
2023-01-17T20:57:59.876Z,7.56
2023-01-17T21:01:06.932Z,7.67
2023-01-17T21:04:14.790Z,7.76
2023-01-17T21:07:21.245Z,7.83
2023-01-17T21:10:29.475Z,7.91
2023-01-17T21:13:35.977Z,7.96
2023-01-17T21:16:42.415Z,8.02
2023-01-17T21:19:48.647Z,8.04
2023-01-17T21:22:54.975Z,8.06
2023-01-17T21:25:59.571Z,8.05
2023-01-17T21:29:05.895Z,8.03
2023-01-17T21:32:10.331Z,8.08
2023-01-17T21:35:16.819Z,8.08
2023-01-17T21:38:23.118Z,8.13
2023-01-17T21:41:28.751Z,8.14
2023-01-17T21:44:36.474Z,7.73
2023-01-17T21:47:44.783Z,7.10
2023-01-17T21:50:52.786Z,6.64
2023-01-17T21:53:59.173Z,6.58
2023-01-17T21:57:21.082Z,6.95
2023-01-17T22:00:27.320Z,7.25
2023-01-17T22:03:33.630Z,7.49
2023-01-17T22:06:39.160Z,7.65
2023-01-17T22:09:45.505Z,7.76
2023-01-17T22:12:52.727Z,7.91
2023-01-17T22:16:03.631Z,7.99
2023-01-17T22:19:09.882Z,8.08
2023-01-17T22:22:16.343Z,8.16
2023-01-17T22:25:23.370Z,8.21
2023-01-17T22:28:32.694Z,8.26
2023-01-17T22:31:39.094Z,8.31
2023-01-17T22:34:43.614Z,8.36
2023-01-17T22:37:49.939Z,8.37
2023-01-17T22:40:55.367Z,8.44
2023-01-17T22:44:03.582Z,8.47
2023-01-17T22:47:09.952Z,8.52
2023-01-17T22:50:14.433Z,8.57
2023-01-17T22:53:20.596Z,8.56
2023-01-17T22:56:29.261Z,8.56
2023-01-17T22:59:35.726Z,8.55
2023-01-17T23:02:42.766Z,8.54
2023-01-17T23:05:49.073Z,8.55
2023-01-17T23:08:57.366Z,8.56
2023-01-17T23:12:03.510Z,8.57
2023-01-17T23:15:28.359Z,8.56
2023-01-17T23:18:52.092Z,8.49
2023-01-17T23:22:19.392Z,8.41
2023-01-17T23:25:25.765Z,8.34
2023-01-17T23:28:31.988Z,8.25
2023-01-17T23:31:39.499Z,8.14
2023-01-17T23:34:47.771Z,8.00
2023-01-17T23:38:11.520Z,7.83
2023-01-17T23:41:34.871Z,7.69
2023-01-17T23:44:40.957Z,7.53
2023-01-17T23:47:47.387Z,7.42
2023-01-17T23:50:57.764Z,7.35
2023-01-17T23:54:06.299Z,7.31
2023-01-17T23:57:12.542Z,7.23
